Fort Bliss, Texas
Current Conditions -  °F | °C
As of 4:58 AM on Friday 28 Nov 2014 (Local Time) from KBIF Reporting Station
Clear Clear  
Wind Chill: 25°   Ceiling: Unl
Heat Index: 33°   Visibility: 10mi
Dew Point: 20°   Wind: 9mph
Humidity: 60%   Direction: 360°N
Pressure: 30.26"   Gusts: NA
Location:  31.8335°N, 106.423°W
Report Text: KBIF 281158Z AUTO 36008KT 10SM CLR 00/M06 A3026 RMK AO2 SLP226 T00041065 10045 21012 56006 $
Loading
Personal Weather Stations






























Interactive Weather Map New forecast layout! Learn more

10-Day Weather Forecast

Advertisements
Track Severe Weather on mobile